Union Mills, Washington
Current Conditions -  °F | °C
As of 10:54 AM on Sunday 21 Dec 2014 (Local Time) from KOLM Reporting Station
Scattered Clouds Scattered Clouds  
Wind Chill: 53°   Ceiling: Unl
Heat Index: 53°   Visibility: 10mi
Dew Point: 48°   Wind: 10mph
Humidity: 83%   Direction: 210°SSW
Pressure: 29.98"   Gusts: NA
Location:  46.9755°N, 122.872°W
Report Text: KOLM 211854Z 21009KT 10SM SCT028 12/09 A2998 RMK AO2 SLP152 T01170089
Loading
Personal Weather Stations






























Interactive Weather Map New forecast layout! Learn more

10-Day Weather Forecast

Advertisements
Track Severe Weather on mobile